createdAt,value
2023-04-17T00:01:16.009Z,100267.52
2023-04-17T00:03:45.017Z,100268.73
2023-04-17T00:06:14.248Z,100272.66
2023-04-17T00:08:43.713Z,100270.51
2023-04-17T00:11:11.676Z,100270.73
2023-04-17T00:13:44.154Z,100270.95
2023-04-17T00:16:13.845Z,100269.92
2023-04-17T00:18:43.209Z,100272.36
2023-04-17T00:21:11.137Z,100275.65
2023-04-17T00:23:39.658Z,100270.41
2023-04-17T00:26:07.734Z,100270.04
2023-04-17T00:28:36.019Z,100270.25
2023-04-17T00:31:05.368Z,100271.21
2023-04-17T00:33:33.703Z,100271.50
2023-04-17T00:36:01.743Z,100270.14
2023-04-17T00:41:21.863Z,100271.66
2023-04-17T00:43:49.906Z,100273.11
2023-04-17T00:46:17.935Z,100274.40
2023-04-17T00:48:46.204Z,100271.06
2023-04-17T00:51:14.225Z,100275.27
2023-04-17T00:53:42.264Z,100274.64
2023-04-17T00:56:10.900Z,100269.52
2023-04-17T00:58:38.874Z,100270.48
2023-04-17T01:01:07.182Z,100268.42
2023-04-17T01:03:35.612Z,100266.00
2023-04-17T01:06:03.809Z,100267.24
2023-04-17T01:08:41.958Z,100266.21
2023-04-17T01:11:10.665Z,100268.05
2023-04-17T01:13:48.186Z,100265.40
2023-04-17T01:16:18.448Z,100266.00
2023-04-17T01:18:48.480Z,100273.25
2023-04-17T01:21:17.148Z,100264.61
2023-04-17T01:23:54.720Z,100263.95
2023-04-17T01:26:27.384Z,100259.15
2023-04-17T01:28:56.349Z,100257.12
2023-04-17T01:31:24.987Z,100260.08
2023-04-17T01:33:53.703Z,100255.88
2023-04-17T01:36:21.647Z,100259.80
2023-04-17T01:38:49.654Z,100257.83
2023-04-17T01:41:17.576Z,100255.23
2023-04-17T01:43:45.920Z,100256.09
2023-04-17T01:46:13.941Z,100257.00
2023-04-17T01:48:42.087Z,100259.20
2023-04-17T01:51:10.272Z,100258.13
2023-04-17T01:53:38.842Z,100259.54
2023-04-17T01:56:06.988Z,100262.28
2023-04-17T01:58:35.923Z,100262.08
2023-04-17T02:01:04.031Z,100259.21
2023-04-17T02:03:32.582Z,100263.20
2023-04-17T02:06:01.155Z,100261.74
2023-04-17T02:08:29.977Z,100262.29
2023-04-17T02:10:59.919Z,100259.88
2023-04-17T02:13:28.513Z,100263.27
2023-04-17T02:15:57.802Z,100263.97
2023-04-17T02:18:30.492Z,100269.95
2023-04-17T02:21:01.354Z,100263.42
2023-04-17T02:23:29.668Z,100272.11
2023-04-17T02:25:58.015Z,100273.58
2023-04-17T02:28:25.993Z,100276.71
2023-04-17T02:30:54.046Z,100270.40
2023-04-17T02:33:22.557Z,100268.94
2023-04-17T02:35:51.101Z,100268.89
2023-04-17T02:38:22.003Z,100271.10
2023-04-17T02:40:49.974Z,100274.22
2023-04-17T02:43:18.549Z,100269.54
2023-04-17T02:45:46.594Z,100271.04
2023-04-17T02:48:15.480Z,100278.05
2023-04-17T02:50:43.424Z,100280.73
2023-04-17T02:53:16.568Z,100284.85
2023-04-17T02:55:44.511Z,100279.56
2023-04-17T02:58:13.449Z,100280.86
2023-04-17T03:00:41.590Z,100285.59
2023-04-17T03:03:11.868Z,100289.73
2023-04-17T03:05:40.083Z,100290.23
2023-04-17T03:08:08.042Z,100293.31
2023-04-17T03:10:45.749Z,100293.27
2023-04-17T03:13:13.836Z,100291.22
2023-04-17T03:15:41.891Z,100301.36
2023-04-17T03:18:09.863Z,100301.80
2023-04-17T03:20:37.803Z,100300.12
2023-04-17T03:23:06.010Z,100301.37
2023-04-17T03:25:34.089Z,100299.20
2023-04-17T03:28:02.866Z,100303.31
2023-04-17T03:30:33.212Z,100311.45
2023-04-17T03:33:04.093Z,100308.60
2023-04-17T03:35:32.873Z,100314.55
2023-04-17T03:38:03.157Z,100315.36
2023-04-17T03:40:33.645Z,100315.58
2023-04-17T03:43:01.737Z,100318.55
2023-04-17T03:45:31.228Z,100320.86
2023-04-17T03:47:59.310Z,100320.38
2023-04-17T03:50:27.353Z,100320.21
2023-04-17T03:52:57.476Z,100320.10
2023-04-17T03:55:27.287Z,100321.17
2023-04-17T03:57:55.491Z,100326.85
2023-04-17T04:00:24.821Z,100324.25
2023-04-17T04:02:56.404Z,100328.10
2023-04-17T04:05:28.250Z,100332.23
2023-04-17T04:07:56.976Z,100334.44
2023-04-17T04:10:33.169Z,100331.05
2023-04-17T04:13:01.939Z,100330.73
2023-04-17T04:15:30.398Z,100325.48
2023-04-17T04:18:01.357Z,100330.35
2023-04-17T04:20:29.613Z,100327.71
2023-04-17T04:23:07.428Z,100337.33
2023-04-17T04:25:36.696Z,100335.23
2023-04-17T04:28:18.076Z,100341.98
2023-04-17T04:30:53.097Z,100336.17
2023-04-17T04:33:21.663Z,100336.34
2023-04-17T04:35:51.448Z,100329.81
2023-04-17T04:38:23.470Z,100332.36
2023-04-17T04:40:52.507Z,100339.70
2023-04-17T04:43:22.431Z,100344.68
2023-04-17T04:45:53.207Z,100337.23
2023-04-17T04:48:22.495Z,100336.80
2023-04-17T04:50:50.559Z,100338.05
2023-04-17T04:53:21.045Z,100337.14
2023-04-17T04:55:58.101Z,100335.79
2023-04-17T04:58:26.720Z,100334.35
2023-04-17T05:00:56.415Z,100335.29
2023-04-17T05:03:30.218Z,100335.46
2023-04-17T05:05:58.847Z,100332.71
2023-04-17T05:08:29.986Z,100332.77
2023-04-17T05:11:04.828Z,100333.19
2023-04-17T05:13:33.033Z,100336.34
2023-04-17T05:16:01.952Z,100335.14
2023-04-17T05:18:31.205Z,100336.60
2023-04-17T05:20:59.338Z,100334.77
2023-04-17T05:23:28.439Z,100336.66
2023-04-17T05:25:58.750Z,100340.40
2023-04-17T05:28:27.343Z,100346.08
2023-04-17T05:30:57.204Z,100350.36
2023-04-17T05:33:35.048Z,100356.46
2023-04-17T05:36:04.198Z,100359.23
2023-04-17T05:38:34.975Z,100359.23
2023-04-17T05:41:08.586Z,100356.09
2023-04-17T05:43:38.418Z,100354.91
2023-04-17T05:46:07.252Z,100355.13
2023-04-17T05:48:35.969Z,100347.29
2023-04-17T05:51:04.673Z,100348.48
2023-04-17T05:53:33.738Z,100355.41
2023-04-17T05:56:03.528Z,100357.08
2023-04-17T05:58:36.609Z,100353.52
2023-04-17T06:01:06.459Z,100355.40
2023-04-17T06:03:37.819Z,100353.02
2023-04-17T06:06:12.826Z,100359.49
2023-04-17T06:08:41.125Z,100359.50
2023-04-17T06:11:09.165Z,100363.01
2023-04-17T06:13:37.300Z,100365.95
2023-04-17T06:16:05.738Z,100366.06
2023-04-17T06:18:33.848Z,100360.92
2023-04-17T06:21:01.829Z,100362.48
2023-04-17T06:23:33.361Z,100363.41
2023-04-17T06:26:01.465Z,100366.77
2023-04-17T06:28:30.066Z,100367.59
2023-04-17T06:30:59.960Z,100369.37
2023-04-17T06:33:28.115Z,100365.80
2023-04-17T06:35:56.718Z,100371.14
2023-04-17T06:38:30.854Z,100366.17
2023-04-17T06:40:58.764Z,100369.79
2023-04-17T06:43:27.292Z,100371.85
2023-04-17T06:45:55.379Z,100377.34
2023-04-17T06:48:23.373Z,100376.70
2023-04-17T06:50:51.366Z,100379.87
2023-04-17T06:53:19.745Z,100379.63
2023-04-17T06:55:47.745Z,100375.95
2023-04-17T06:58:15.734Z,100377.23
2023-04-17T07:00:43.697Z,100379.39
2023-04-17T07:03:14.063Z,100383.95
2023-04-17T07:05:44.088Z,100383.80
2023-04-17T07:08:12.700Z,100379.49
2023-04-17T07:10:41.283Z,100384.72
2023-04-17T07:13:09.476Z,100383.41
2023-04-17T07:15:37.610Z,100381.13
2023-04-17T07:18:05.843Z,100386.55
2023-04-17T07:20:34.027Z,100384.20
2023-04-17T07:23:02.085Z,100387.05
2023-04-17T07:25:30.627Z,100387.37
2023-04-17T07:27:58.746Z,100388.84
2023-04-17T07:30:26.756Z,100393.44
2023-04-17T07:32:54.823Z,100394.08
2023-04-17T07:35:22.964Z,100393.11
2023-04-17T07:37:51.019Z,100393.33
2023-04-17T07:40:19.459Z,100393.86
2023-04-17T07:42:47.328Z,100396.46
2023-04-17T07:45:15.237Z,100395.88
2023-04-17T07:47:43.152Z,100392.36
2023-04-17T07:50:11.332Z,100391.67
2023-04-17T07:52:39.418Z,100394.48
2023-04-17T07:55:08.025Z,100396.96
2023-04-17T07:57:35.988Z,100395.95
2023-04-17T08:00:07.122Z,100400.06
2023-04-17T08:02:42.177Z,100396.39
2023-04-17T08:05:10.549Z,100393.81
2023-04-17T08:07:40.247Z,100391.14
2023-04-17T08:10:08.357Z,100384.18
2023-04-17T08:12:37.074Z,100381.98
2023-04-17T08:15:05.431Z,100382.77
2023-04-17T08:17:34.162Z,100383.08
2023-04-17T08:20:10.977Z,100377.01
2023-04-17T08:22:39.809Z,100377.71
2023-04-17T08:25:09.675Z,100372.33
2023-04-17T08:27:38.299Z,100368.73
2023-04-17T08:30:06.599Z,100370.86
2023-04-17T08:32:53.014Z,100371.14
2023-04-17T08:35:21.004Z,100372.42
2023-04-17T08:37:49.073Z,100367.12
2023-04-17T08:40:18.936Z,100368.77
2023-04-17T08:42:48.146Z,100366.70
2023-04-17T08:45:16.494Z,100365.23
2023-04-17T08:47:44.774Z,100359.15
2023-04-17T08:50:13.962Z,100357.94
2023-04-17T08:52:45.707Z,100355.08
2023-04-17T08:55:14.452Z,100360.17
2023-04-17T08:57:55.758Z,100359.70
2023-04-17T09:00:24.471Z,100358.41
2023-04-17T09:02:54.086Z,100362.48
2023-04-17T09:08:21.083Z,100355.67
2023-04-17T09:10:49.846Z,100355.59
2023-04-17T09:13:18.927Z,100356.82
2023-04-17T09:15:47.465Z,100357.16
2023-04-17T09:18:23.926Z,100356.40
2023-04-17T09:20:52.550Z,100359.36
2023-04-17T09:23:20.825Z,100361.39
2023-04-17T09:25:52.833Z,100356.98
2023-04-17T09:28:21.781Z,100357.02
2023-04-17T09:30:49.725Z,100357.50
2023-04-17T09:33:17.980Z,100354.60
2023-04-17T09:35:46.323Z,100360.64
2023-04-17T09:38:14.265Z,100360.89
2023-04-17T09:40:42.283Z,100361.55
2023-04-17T09:43:10.928Z,100365.77
2023-04-17T09:45:41.887Z,100364.95
2023-04-17T09:48:11.351Z,100360.98
2023-04-17T09:50:39.761Z,100359.02
2023-04-17T09:53:07.878Z,100356.11
2023-04-17T09:55:38.307Z,100360.21
2023-04-17T09:58:07.546Z,100358.81
2023-04-17T10:00:36.954Z,100354.21
2023-04-17T10:03:05.248Z,100351.49
2023-04-17T10:05:33.365Z,100352.98
2023-04-17T10:08:02.775Z,100354.62
2023-04-17T10:10:33.360Z,100348.88
2023-04-17T10:13:02.235Z,100352.89
2023-04-17T10:15:30.598Z,100350.70
2023-04-17T10:18:17.277Z,100348.95
2023-04-17T10:20:48.582Z,100351.61
2023-04-17T10:23:32.752Z,100352.15
2023-04-17T10:26:19.342Z,100350.49
2023-04-17T10:28:48.339Z,100349.14
2023-04-17T10:31:16.604Z,100342.81
2023-04-17T10:33:51.154Z,100341.46
2023-04-17T10:36:37.768Z,100344.41
2023-04-17T10:39:12.876Z,100347.69
2023-04-17T10:42:00.725Z,100349.80
2023-04-17T10:44:33.400Z,100346.27
2023-04-17T10:47:07.969Z,100345.56
2023-04-17T10:49:54.846Z,100342.99
2023-04-17T10:52:32.259Z,100336.39
2023-04-17T10:55:10.041Z,100338.42
2023-04-17T10:57:54.683Z,100333.11
2023-04-17T11:00:32.248Z,100333.26
2023-04-17T11:03:00.757Z,100335.81
2023-04-17T11:05:30.401Z,100335.41
2023-04-17T11:07:58.983Z,100331.34
2023-04-17T11:10:27.218Z,100332.10
2023-04-17T11:12:58.037Z,100329.21
2023-04-17T11:15:29.592Z,100325.86
2023-04-17T11:17:58.039Z,100325.14
2023-04-17T11:20:27.148Z,100319.73
2023-04-17T11:22:55.138Z,100316.73
2023-04-17T11:25:26.589Z,100313.39
2023-04-17T11:27:57.840Z,100300.10
2023-04-17T11:30:35.947Z,100298.64
2023-04-17T11:33:04.642Z,100298.90
2023-04-17T11:35:33.805Z,100291.92
2023-04-17T11:38:06.122Z,100293.43
2023-04-17T11:40:34.309Z,100282.91
2023-04-17T11:43:08.362Z,100276.02
2023-04-17T11:45:36.442Z,100272.13
2023-04-17T11:48:04.482Z,100265.25
2023-04-17T11:50:32.774Z,100264.02
2023-04-17T11:53:01.045Z,100260.35
2023-04-17T11:55:31.523Z,100260.20
2023-04-17T11:58:04.185Z,100257.48
2023-04-17T12:00:33.131Z,100250.34
2023-04-17T12:03:01.749Z,100250.84
2023-04-17T12:05:30.811Z,100251.36
2023-04-17T12:08:00.393Z,100250.27
2023-04-17T12:10:38.180Z,100246.85
2023-04-17T12:13:06.247Z,100249.45
2023-04-17T12:15:35.580Z,100248.14
2023-04-17T12:18:08.814Z,100244.69
2023-04-17T12:20:36.981Z,100251.56
2023-04-17T12:23:05.400Z,100251.20
2023-04-17T12:25:34.662Z,100247.74
2023-04-17T12:28:05.067Z,100252.09
2023-04-17T12:30:36.131Z,100249.10
2023-04-17T12:33:04.820Z,100248.14
2023-04-17T12:35:33.764Z,100244.23
2023-04-17T12:38:02.143Z,100243.46
2023-04-17T12:40:30.514Z,100236.52
2023-04-17T12:42:58.448Z,100238.66
2023-04-17T12:45:26.527Z,100240.86
2023-04-17T12:47:54.517Z,100239.64
2023-04-17T12:50:22.595Z,100235.88
2023-04-17T12:52:50.704Z,100240.25
2023-04-17T12:55:18.790Z,100237.27
2023-04-17T12:57:46.683Z,100230.77
2023-04-17T13:00:14.900Z,100234.73
2023-04-17T13:02:42.900Z,100237.74
2023-04-17T13:05:10.947Z,100234.19
2023-04-17T13:07:39.180Z,100236.02
2023-04-17T13:10:10.832Z,100234.70
2023-04-17T13:12:43.681Z,100234.45
2023-04-17T13:15:17.186Z,100240.15
2023-04-17T13:17:45.479Z,100235.84
2023-04-17T13:20:13.589Z,100236.20
2023-04-17T13:22:42.302Z,100233.40
2023-04-17T13:25:10.329Z,100229.69
2023-04-17T13:27:38.993Z,100232.67
2023-04-17T13:30:07.594Z,100231.84
2023-04-17T13:32:35.662Z,100234.20
2023-04-17T13:35:05.299Z,100236.44
2023-04-17T13:37:33.671Z,100235.06
2023-04-17T13:40:05.276Z,100236.60
2023-04-17T13:42:33.586Z,100236.68
2023-04-17T13:45:01.492Z,100234.69
2023-04-17T13:47:32.806Z,100237.86
2023-04-17T13:50:00.867Z,100239.12
2023-04-17T13:52:29.485Z,100236.66
2023-04-17T13:54:57.432Z,100232.39
2023-04-17T13:57:25.401Z,100233.67
2023-04-17T13:59:53.360Z,100228.30
2023-04-17T14:02:21.744Z,100232.20
2023-04-17T14:04:49.926Z,100228.59
2023-04-17T14:07:18.481Z,100227.59
2023-04-17T14:09:46.387Z,100228.44
2023-04-17T14:12:19.854Z,100230.01
2023-04-17T14:14:48.279Z,100225.58
2023-04-17T14:17:16.234Z,100225.63
2023-04-17T14:19:44.406Z,100227.71
2023-04-17T14:22:12.529Z,100228.77
2023-04-17T14:24:40.506Z,100225.11
2023-04-17T14:27:09.138Z,100228.06
2023-04-17T14:29:37.162Z,100226.04
2023-04-17T14:32:05.422Z,100221.61
2023-04-17T14:34:33.413Z,100221.23
2023-04-17T14:37:01.385Z,100216.94
2023-04-17T14:39:31.550Z,100213.00
2023-04-17T14:42:01.955Z,100212.11
2023-04-17T14:44:30.721Z,100205.59
2023-04-17T14:46:58.783Z,100205.50
2023-04-17T14:49:27.016Z,100203.24
2023-04-17T14:52:02.648Z,100205.40
2023-04-17T14:54:35.014Z,100201.84
2023-04-17T14:57:02.907Z,100200.73
2023-04-17T14:59:31.785Z,100200.56
2023-04-17T15:01:59.968Z,100203.79
2023-04-17T15:04:28.185Z,100200.02
2023-04-17T15:06:56.194Z,100198.52
2023-04-17T15:09:24.467Z,100193.87
2023-04-17T15:11:52.612Z,100191.75
2023-04-17T15:14:21.859Z,100188.99
2023-04-17T15:16:49.899Z,100188.45
2023-04-17T15:19:17.825Z,100188.21
2023-04-17T15:21:45.755Z,100194.27
2023-04-17T15:24:13.631Z,100190.91
2023-04-17T15:26:43.429Z,100192.02
2023-04-17T15:29:12.919Z,100188.78
2023-04-17T15:31:41.030Z,100188.77
2023-04-17T15:34:09.322Z,100190.38
2023-04-17T15:36:37.388Z,100191.80
2023-04-17T15:39:05.428Z,100195.47
2023-04-17T15:41:33.805Z,100195.83
2023-04-17T15:44:02.413Z,100201.62
2023-04-17T15:46:32.115Z,100201.95
2023-04-17T15:49:07.713Z,100196.91
2023-04-17T15:51:39.554Z,100199.58
2023-04-17T15:54:11.945Z,100197.17
2023-04-17T15:56:40.252Z,100194.21
2023-04-17T15:59:08.281Z,100193.05
2023-04-17T16:01:36.320Z,100197.41
2023-04-17T16:04:04.458Z,100197.32
2023-04-17T16:06:32.672Z,100197.38
2023-04-17T16:09:01.165Z,100198.88
2023-04-17T16:11:29.481Z,100200.18
2023-04-17T16:13:57.529Z,100200.05
2023-04-17T16:16:25.646Z,100197.48
2023-04-17T16:18:53.741Z,100202.18
2023-04-17T16:21:21.636Z,100204.31
2023-04-17T16:23:49.685Z,100202.16
2023-04-17T16:26:17.741Z,100202.34
2023-04-17T16:28:46.556Z,100202.33
2023-04-17T16:31:16.909Z,100204.76
2023-04-17T16:33:46.026Z,100202.05
2023-04-17T16:36:13.885Z,100205.44
2023-04-17T16:38:41.819Z,100206.52
2023-04-17T16:41:09.950Z,100207.61
2023-04-17T16:43:38.030Z,100205.73
2023-04-17T16:46:18.340Z,100209.77
2023-04-17T16:48:49.496Z,100207.48
2023-04-17T16:51:20.420Z,100208.70
2023-04-17T16:53:48.323Z,100208.30
2023-04-17T16:56:16.247Z,100207.77
2023-04-17T16:58:44.200Z,100212.16
2023-04-17T17:01:12.185Z,100206.82
2023-04-17T17:03:42.443Z,100208.58
2023-04-17T17:06:10.712Z,100207.98
2023-04-17T17:08:39.223Z,100208.54
2023-04-17T17:11:07.392Z,100209.72
2023-04-17T17:13:36.200Z,100210.36
2023-04-17T17:16:04.267Z,100215.40
2023-04-17T17:18:32.310Z,100213.09
2023-04-17T17:21:02.014Z,100216.84
2023-04-17T17:23:30.496Z,100213.91
2023-04-17T17:25:58.548Z,100214.24
2023-04-17T17:28:26.539Z,100216.13
2023-04-17T17:30:59.494Z,100215.67
2023-04-17T17:33:27.551Z,100217.81
2023-04-17T17:35:55.608Z,100212.59
2023-04-17T17:38:23.811Z,100212.95
2023-04-17T17:40:52.220Z,100212.66
2023-04-17T17:43:20.223Z,100214.64
2023-04-17T17:45:48.270Z,100214.80
2023-04-17T17:48:18.303Z,100214.27
2023-04-17T17:50:46.266Z,100217.83
2023-04-17T17:53:21.374Z,100217.20
2023-04-17T17:55:54.057Z,100215.45
2023-04-17T17:58:22.073Z,100213.23
2023-04-17T18:00:50.326Z,100209.45
2023-04-17T18:03:18.535Z,100215.47
2023-04-17T18:05:47.006Z,100211.69
2023-04-17T18:08:14.961Z,100214.02
2023-04-17T18:10:42.900Z,100209.79
2023-04-17T18:13:10.898Z,100208.10
2023-04-17T18:15:38.849Z,100207.67
2023-04-17T18:18:07.146Z,100208.17
2023-04-17T18:20:39.346Z,100210.06
2023-04-17T18:23:07.318Z,100207.08
2023-04-17T18:25:35.777Z,100205.98
2023-04-17T18:28:03.968Z,100205.01
2023-04-17T18:30:32.038Z,100203.15
2023-04-17T18:33:00.060Z,100202.62
2023-04-17T18:35:28.134Z,100201.40
2023-04-17T18:37:56.688Z,100199.54
2023-04-17T18:40:24.677Z,100199.06
2023-04-17T18:42:52.638Z,100195.35
2023-04-17T18:45:20.563Z,100197.43
2023-04-17T18:47:48.713Z,100196.90
2023-04-17T18:50:16.728Z,100191.25
2023-04-17T18:52:48.753Z,100191.32
2023-04-17T18:55:19.495Z,100191.44
2023-04-17T18:57:47.369Z,100189.98
2023-04-17T19:00:15.441Z,100183.20
2023-04-17T19:02:43.669Z,100180.45
2023-04-17T19:05:11.797Z,100175.50
2023-04-17T19:07:40.921Z,100178.33
2023-04-17T19:10:09.401Z,100174.80
2023-04-17T19:12:37.608Z,100175.39
2023-04-17T19:15:06.061Z,100175.35
2023-04-17T19:17:34.815Z,100171.13
2023-04-17T19:20:02.863Z,100172.33
2023-04-17T19:22:31.023Z,100171.07
2023-04-17T19:24:59.153Z,100170.27
2023-04-17T19:27:27.308Z,100169.29
2023-04-17T19:29:55.523Z,100168.80
2023-04-17T19:32:23.612Z,100167.17
2023-04-17T19:34:51.610Z,100159.89
2023-04-17T19:37:19.512Z,100161.13
2023-04-17T19:39:47.460Z,100161.36
2023-04-17T19:42:15.407Z,100160.71
2023-04-17T19:44:43.287Z,100162.52
2023-04-17T19:47:11.552Z,100158.30
2023-04-17T19:49:39.798Z,100160.83
2023-04-17T19:52:07.962Z,100157.95
2023-04-17T19:54:36.317Z,100159.63
2023-04-17T19:57:04.325Z,100155.16
2023-04-17T19:59:32.304Z,100157.13
2023-04-17T20:02:00.437Z,100155.05
2023-04-17T20:04:28.554Z,100154.40
2023-04-17T20:06:56.603Z,100149.15
2023-04-17T20:09:24.753Z,100150.52
2023-04-17T20:11:52.677Z,100146.96
2023-04-17T20:14:20.956Z,100145.15
2023-04-17T20:16:50.328Z,100143.75
2023-04-17T20:19:18.426Z,100141.48
2023-04-17T20:21:47.152Z,100140.45
2023-04-17T20:24:16.361Z,100136.88
2023-04-17T20:26:44.420Z,100136.12
2023-04-17T20:29:12.678Z,100132.02
2023-04-17T20:31:40.918Z,100128.09
2023-04-17T20:34:08.993Z,100126.75
2023-04-17T20:36:37.305Z,100122.16
2023-04-17T20:39:05.761Z,100124.56
2023-04-17T20:41:34.314Z,100121.83
2023-04-17T20:44:02.317Z,100119.73
2023-04-17T20:46:30.763Z,100121.27
2023-04-17T20:48:58.772Z,100116.61
2023-04-17T20:51:27.586Z,100114.14
2023-04-17T20:53:55.947Z,100111.40
2023-04-17T20:56:24.031Z,100115.70
2023-04-17T20:58:51.941Z,100112.52
2023-04-17T21:01:20.701Z,100110.95
2023-04-17T21:03:48.779Z,100109.61
2023-04-17T21:06:17.882Z,100109.02
2023-04-17T21:08:45.872Z,100107.84
2023-04-17T21:11:13.874Z,100105.17
2023-04-17T21:13:41.844Z,100103.73
2023-04-17T21:16:10.641Z,100104.92
2023-04-17T21:18:38.706Z,100100.30
2023-04-17T21:21:06.616Z,100099.65
2023-04-17T21:23:34.693Z,100097.10
2023-04-17T21:26:03.057Z,100094.73
2023-04-17T21:28:31.116Z,100091.81
2023-04-17T21:30:59.547Z,100089.34
2023-04-17T21:33:27.603Z,100088.73
2023-04-17T21:35:55.781Z,100087.75
2023-04-17T21:38:23.803Z,100089.39
2023-04-17T21:40:51.883Z,100088.29
2023-04-17T21:43:20.685Z,100095.14
2023-04-17T21:45:50.034Z,100091.74
2023-04-17T21:48:18.234Z,100092.92
2023-04-17T21:50:46.244Z,100088.52
2023-04-17T21:53:14.216Z,100092.05
2023-04-17T21:55:42.221Z,100086.80
2023-04-17T21:58:10.333Z,100084.77
2023-04-17T22:00:38.290Z,100083.85
2023-04-17T22:03:06.409Z,100083.20
2023-04-17T22:05:34.618Z,100081.17
2023-04-17T22:08:02.743Z,100081.16
2023-04-17T22:10:31.045Z,100082.19
2023-04-17T22:12:58.958Z,100081.93
2023-04-17T22:15:26.932Z,100081.41
2023-04-17T22:17:54.929Z,100076.50
2023-04-17T22:20:22.883Z,100078.95
2023-04-17T22:22:50.786Z,100073.33
2023-04-17T22:25:18.823Z,100071.50
2023-04-17T22:27:47.064Z,100069.52
2023-04-17T22:30:15.105Z,100069.84
2023-04-17T22:32:43.378Z,100070.41
2023-04-17T22:35:11.277Z,100067.31
2023-04-17T22:37:39.362Z,100067.60
2023-04-17T22:40:07.874Z,100066.87
2023-04-17T22:42:36.081Z,100061.54
2023-04-17T22:45:04.233Z,100059.95
2023-04-17T22:47:33.157Z,100059.02
2023-04-17T22:50:01.166Z,100056.39
2023-04-17T22:52:29.650Z,100054.10
2023-04-17T22:54:57.672Z,100057.57
2023-04-17T22:57:25.718Z,100054.62
2023-04-17T22:59:53.734Z,100049.30
2023-04-17T23:02:21.737Z,100045.60
2023-04-17T23:04:49.798Z,100043.95
2023-04-17T23:07:17.922Z,100041.91
2023-04-17T23:09:46.648Z,100040.31
2023-04-17T23:12:14.789Z,100040.28
2023-04-17T23:14:43.957Z,100041.29
2023-04-17T23:17:12.306Z,100041.63
2023-04-17T23:19:43.303Z,100042.13
2023-04-17T23:22:11.380Z,100041.05
2023-04-17T23:24:39.583Z,100037.02
2023-04-17T23:27:07.525Z,100039.10
2023-04-17T23:29:35.612Z,100034.61
2023-04-17T23:32:04.634Z,100037.70
2023-04-17T23:34:33.380Z,100037.30
2023-04-17T23:37:02.799Z,100036.48
2023-04-17T23:39:30.952Z,100033.98
2023-04-17T23:42:00.712Z,100034.30
2023-04-17T23:44:28.980Z,100037.30
2023-04-17T23:46:57.082Z,100030.75
2023-04-17T23:49:25.039Z,100032.89
2023-04-17T23:51:53.036Z,100029.70
2023-04-17T23:54:21.420Z,100031.42
2023-04-17T23:56:49.290Z,100033.25
2023-04-17T23:59:17.316Z,100030.34
